sensor_id;sensor_type;location;lat;lon;timestamp;P1;durP1;ratioP1;P2;durP2;ratioP2
21352;SDS011;10834;52.268;6.770;2022-08-19T00:02:10;2.75;;;2.55;;
21352;SDS011;10834;52.268;6.770;2022-08-19T00:04:56;2.97;;;2.78;;
21352;SDS011;10834;52.268;6.770;2022-08-19T00:07:42;2.97;;;2.78;;
21352;SDS011;10834;52.268;6.770;2022-08-19T00:10:28;3.03;;;2.72;;
21352;SDS011;10834;52.268;6.770;2022-08-19T00:13:14;2.78;;;2.45;;
21352;SDS011;10834;52.268;6.770;2022-08-19T00:16:01;2.60;;;2.50;;
21352;SDS011;10834;52.268;6.770;2022-08-19T00:18:48;3.10;;;2.85;;
21352;SDS011;10834;52.268;6.770;2022-08-19T00:21:34;2.97;;;2.40;;
21352;SDS011;10834;52.268;6.770;2022-08-19T00:24:24;2.70;;;2.50;;
21352;SDS011;10834;52.268;6.770;2022-08-19T00:27:11;2.70;;;2.50;;
21352;SDS011;10834;52.268;6.770;2022-08-19T00:29:57;2.30;;;2.20;;
21352;SDS011;10834;52.268;6.770;2022-08-19T00:32:44;3.05;;;2.80;;
21352;SDS011;10834;52.268;6.770;2022-08-19T00:35:30;3.58;;;3.10;;
21352;SDS011;10834;52.268;6.770;2022-08-19T00:38:16;2.83;;;2.63;;
21352;SDS011;10834;52.268;6.770;2022-08-19T00:41:02;2.40;;;2.30;;
21352;SDS011;10834;52.268;6.770;2022-08-19T00:44:06;2.65;;;2.45;;
21352;SDS011;10834;52.268;6.770;2022-08-19T00:46:56;2.88;;;2.70;;
21352;SDS011;10834;52.268;6.770;2022-08-19T00:49:45;2.70;;;2.50;;
21352;SDS011;10834;52.268;6.770;2022-08-19T00:52:37;2.17;;;2.08;;
21352;SDS011;10834;52.268;6.770;2022-08-19T00:55:30;2.80;;;2.60;;
21352;SDS011;10834;52.268;6.770;2022-08-19T00:58:19;2.97;;;2.78;;
21352;SDS011;10834;52.268;6.770;2022-08-19T01:01:07;2.78;;;2.58;;
21352;SDS011;10834;52.268;6.770;2022-08-19T01:03:53;3.72;;;3.42;;
21352;SDS011;10834;52.268;6.770;2022-08-19T01:06:40;2.80;;;2.60;;
21352;SDS011;10834;52.268;6.770;2022-08-19T01:09:29;3.03;;;2.83;;
21352;SDS011;10834;52.268;6.770;2022-08-19T01:12:16;2.42;;;2.22;;
21352;SDS011;10834;52.268;6.770;2022-08-19T01:15:03;2.67;;;2.58;;
21352;SDS011;10834;52.268;6.770;2022-08-19T01:17:52;2.92;;;2.72;;
21352;SDS011;10834;52.268;6.770;2022-08-19T01:20:40;3.20;;;3.00;;
21352;SDS011;10834;52.268;6.770;2022-08-19T01:23:28;2.50;;;2.30;;
21352;SDS011;10834;52.268;6.770;2022-08-19T01:26:27;2.50;;;2.30;;
21352;SDS011;10834;52.268;6.770;2022-08-19T01:29:14;2.95;;;2.75;;
21352;SDS011;10834;52.268;6.770;2022-08-19T01:32:00;2.53;;;2.40;;
21352;SDS011;10834;52.268;6.770;2022-08-19T01:34:47;3.08;;;2.88;;
21352;SDS011;10834;52.268;6.770;2022-08-19T01:37:47;2.85;;;2.65;;
21352;SDS011;10834;52.268;6.770;2022-08-19T01:40:36;2.90;;;2.70;;
21352;SDS011;10834;52.268;6.770;2022-08-19T01:43:24;2.92;;;2.72;;
21352;SDS011;10834;52.268;6.770;2022-08-19T01:46:11;2.70;;;2.50;;
21352;SDS011;10834;52.268;6.770;2022-08-19T01:48:57;2.78;;;2.58;;
21352;SDS011;10834;52.268;6.770;2022-08-19T01:51:44;2.63;;;2.42;;
21352;SDS011;10834;52.268;6.770;2022-08-19T01:54:30;2.72;;;2.53;;
21352;SDS011;10834;52.268;6.770;2022-08-19T01:57:16;3.25;;;2.53;;
21352;SDS011;10834;52.268;6.770;2022-08-19T02:00:07;2.60;;;2.50;;
21352;SDS011;10834;52.268;6.770;2022-08-19T02:02:54;2.75;;;2.55;;
21352;SDS011;10834;52.268;6.770;2022-08-19T02:05:40;2.47;;;2.38;;
21352;SDS011;10834;52.268;6.770;2022-08-19T02:08:27;2.88;;;2.67;;
21352;SDS011;10834;52.268;6.770;2022-08-19T02:11:22;2.80;;;2.70;;
21352;SDS011;10834;52.268;6.770;2022-08-19T02:14:13;2.58;;;2.38;;
21352;SDS011;10834;52.268;6.770;2022-08-19T02:16:59;2.60;;;2.40;;
21352;SDS011;10834;52.268;6.770;2022-08-19T02:19:45;2.50;;;2.30;;
21352;SDS011;10834;52.268;6.770;2022-08-19T02:22:31;2.72;;;2.53;;
21352;SDS011;10834;52.268;6.770;2022-08-19T02:25:17;2.65;;;2.45;;
21352;SDS011;10834;52.268;6.770;2022-08-19T02:28:04;2.78;;;2.58;;
21352;SDS011;10834;52.268;6.770;2022-08-19T02:30:50;2.65;;;2.45;;
21352;SDS011;10834;52.268;6.770;2022-08-19T02:33:36;2.38;;;2.17;;
21352;SDS011;10834;52.268;6.770;2022-08-19T02:36:22;2.72;;;2.53;;
21352;SDS011;10834;52.268;6.770;2022-08-19T02:39:10;2.45;;;2.35;;
21352;SDS011;10834;52.268;6.770;2022-08-19T02:41:56;2.53;;;2.42;;
21352;SDS011;10834;52.268;6.770;2022-08-19T02:44:45;2.47;;;2.38;;
21352;SDS011;10834;52.268;6.770;2022-08-19T02:47:31;2.60;;;2.40;;
21352;SDS011;10834;52.268;6.770;2022-08-19T02:50:17;2.00;;;1.90;;
21352;SDS011;10834;52.268;6.770;2022-08-19T02:53:04;2.75;;;2.55;;
21352;SDS011;10834;52.268;6.770;2022-08-19T02:55:51;2.40;;;2.25;;
21352;SDS011;10834;52.268;6.770;2022-08-19T02:58:37;2.40;;;2.28;;
21352;SDS011;10834;52.268;6.770;2022-08-19T03:01:28;2.03;;;1.92;;
21352;SDS011;10834;52.268;6.770;2022-08-19T03:04:16;2.40;;;2.30;;
21352;SDS011;10834;52.268;6.770;2022-08-19T03:07:02;2.80;;;2.60;;
21352;SDS011;10834;52.268;6.770;2022-08-19T03:09:49;2.63;;;2.42;;
21352;SDS011;10834;52.268;6.770;2022-08-19T03:12:36;2.38;;;2.28;;
21352;SDS011;10834;52.268;6.770;2022-08-19T03:15:23;3.08;;;2.88;;
21352;SDS011;10834;52.268;6.770;2022-08-19T03:18:09;2.97;;;2.78;;
21352;SDS011;10834;52.268;6.770;2022-08-19T03:20:56;2.85;;;2.53;;
21352;SDS011;10834;52.268;6.770;2022-08-19T03:23:43;2.47;;;2.28;;
21352;SDS011;10834;52.268;6.770;2022-08-19T03:26:29;2.70;;;2.50;;
21352;SDS011;10834;52.268;6.770;2022-08-19T03:29:16;2.20;;;2.10;;
21352;SDS011;10834;52.268;6.770;2022-08-19T03:32:03;2.10;;;2.00;;
21352;SDS011;10834;52.268;6.770;2022-08-19T03:34:50;2.40;;;2.30;;
21352;SDS011;10834;52.268;6.770;2022-08-19T03:37:37;3.03;;;2.60;;
21352;SDS011;10834;52.268;6.770;2022-08-19T03:40:23;2.45;;;2.35;;
21352;SDS011;10834;52.268;6.770;2022-08-19T03:43:09;2.25;;;2.15;;
21352;SDS011;10834;52.268;6.770;2022-08-19T03:45:59;2.22;;;2.13;;
21352;SDS011;10834;52.268;6.770;2022-08-19T03:48:48;2.35;;;2.20;;
21352;SDS011;10834;52.268;6.770;2022-08-19T03:51:40;2.20;;;2.10;;
21352;SDS011;10834;52.268;6.770;2022-08-19T03:54:28;2.33;;;2.22;;
21352;SDS011;10834;52.268;6.770;2022-08-19T03:57:14;2.63;;;2.45;;
21352;SDS011;10834;52.268;6.770;2022-08-19T04:00:00;2.60;;;2.40;;
21352;SDS011;10834;52.268;6.770;2022-08-19T04:02:47;2.42;;;2.33;;
21352;SDS011;10834;52.268;6.770;2022-08-19T04:05:33;2.30;;;2.20;;
21352;SDS011;10834;52.268;6.770;2022-08-19T04:08:19;2.42;;;2.33;;
21352;SDS011;10834;52.268;6.770;2022-08-19T04:11:07;2.22;;;2.13;;
21352;SDS011;10834;52.268;6.770;2022-08-19T04:14:00;2.42;;;2.33;;
21352;SDS011;10834;52.268;6.770;2022-08-19T04:16:46;2.00;;;1.90;;
21352;SDS011;10834;52.268;6.770;2022-08-19T04:19:34;2.10;;;2.00;;
21352;SDS011;10834;52.268;6.770;2022-08-19T04:22:21;2.50;;;2.30;;
21352;SDS011;10834;52.268;6.770;2022-08-19T04:25:07;2.67;;;2.47;;
21352;SDS011;10834;52.268;6.770;2022-08-19T04:27:54;2.72;;;2.53;;
21352;SDS011;10834;52.268;6.770;2022-08-19T04:30:41;2.20;;;2.10;;
21352;SDS011;10834;52.268;6.770;2022-08-19T04:33:28;2.42;;;2.33;;
21352;SDS011;10834;52.268;6.770;2022-08-19T04:36:18;2.72;;;2.40;;
21352;SDS011;10834;52.268;6.770;2022-08-19T04:39:11;2.33;;;2.20;;
21352;SDS011;10834;52.268;6.770;2022-08-19T04:42:00;2.42;;;2.22;;
21352;SDS011;10834;52.268;6.770;2022-08-19T04:45:10;2.47;;;2.30;;
21352;SDS011;10834;52.268;6.770;2022-08-19T04:47:58;1.92;;;1.83;;
21352;SDS011;10834;52.268;6.770;2022-08-19T04:50:47;2.58;;;2.38;;
21352;SDS011;10834;52.268;6.770;2022-08-19T04:53:34;2.03;;;1.92;;
21352;SDS011;10834;52.268;6.770;2022-08-19T04:56:22;3.10;;;2.00;;
21352;SDS011;10834;52.268;6.770;2022-08-19T04:59:11;2.58;;;2.38;;
21352;SDS011;10834;52.268;6.770;2022-08-19T05:01:57;1.92;;;1.83;;
21352;SDS011;10834;52.268;6.770;2022-08-19T05:04:43;1.73;;;1.63;;
21352;SDS011;10834;52.268;6.770;2022-08-19T05:07:29;1.90;;;1.80;;
21352;SDS011;10834;52.268;6.770;2022-08-19T05:10:16;2.47;;;2.28;;
21352;SDS011;10834;52.268;6.770;2022-08-19T05:13:02;2.03;;;1.92;;
21352;SDS011;10834;52.268;6.770;2022-08-19T05:15:56;2.13;;;2.03;;
21352;SDS011;10834;52.268;6.770;2022-08-19T05:18:43;2.30;;;2.20;;
21352;SDS011;10834;52.268;6.770;2022-08-19T05:21:48;2.17;;;2.08;;
21352;SDS011;10834;52.268;6.770;2022-08-19T05:24:53;2.10;;;2.00;;
21352;SDS011;10834;52.268;6.770;2022-08-19T05:27:39;2.17;;;2.08;;
21352;SDS011;10834;52.268;6.770;2022-08-19T05:30:26;2.28;;;2.17;;
21352;SDS011;10834;52.268;6.770;2022-08-19T05:33:12;2.42;;;2.33;;
21352;SDS011;10834;52.268;6.770;2022-08-19T05:35:59;2.25;;;1.90;;
21352;SDS011;10834;52.268;6.770;2022-08-19T05:38:47;2.35;;;2.22;;
21352;SDS011;10834;52.268;6.770;2022-08-19T05:41:35;1.83;;;1.73;;
21352;SDS011;10834;52.268;6.770;2022-08-19T05:44:21;2.38;;;2.28;;
21352;SDS011;10834;52.268;6.770;2022-08-19T05:47:08;2.30;;;2.17;;
21352;SDS011;10834;52.268;6.770;2022-08-19T05:49:54;2.58;;;2.38;;
21352;SDS011;10834;52.268;6.770;2022-08-19T05:52:40;2.22;;;2.13;;
21352;SDS011;10834;52.268;6.770;2022-08-19T05:55:26;2.08;;;1.98;;
21352;SDS011;10834;52.268;6.770;2022-08-19T05:58:12;1.90;;;1.80;;
21352;SDS011;10834;52.268;6.770;2022-08-19T06:00:58;2.78;;;2.55;;
21352;SDS011;10834;52.268;6.770;2022-08-19T06:03:49;2.05;;;1.90;;
21352;SDS011;10834;52.268;6.770;2022-08-19T06:06:36;2.13;;;2.03;;
21352;SDS011;10834;52.268;6.770;2022-08-19T06:09:22;2.20;;;2.10;;
21352;SDS011;10834;52.268;6.770;2022-08-19T06:12:09;2.10;;;2.00;;
21352;SDS011;10834;52.268;6.770;2022-08-19T06:14:55;1.80;;;1.70;;
21352;SDS011;10834;52.268;6.770;2022-08-19T06:17:41;2.15;;;2.05;;
21352;SDS011;10834;52.268;6.770;2022-08-19T06:20:29;1.92;;;1.83;;
21352;SDS011;10834;52.268;6.770;2022-08-19T06:23:17;2.20;;;2.10;;
21352;SDS011;10834;52.268;6.770;2022-08-19T06:26:05;2.20;;;2.10;;
21352;SDS011;10834;52.268;6.770;2022-08-19T06:28:51;1.88;;;1.77;;
21352;SDS011;10834;52.268;6.770;2022-08-19T06:31:40;2.55;;;2.35;;
21352;SDS011;10834;52.268;6.770;2022-08-19T06:34:31;1.98;;;1.88;;
21352;SDS011;10834;52.268;6.770;2022-08-19T06:37:18;2.38;;;2.28;;
21352;SDS011;10834;52.268;6.770;2022-08-19T06:40:04;2.17;;;2.08;;
21352;SDS011;10834;52.268;6.770;2022-08-19T06:42:51;2.03;;;1.92;;
21352;SDS011;10834;52.268;6.770;2022-08-19T06:45:38;3.25;;;2.47;;
21352;SDS011;10834;52.268;6.770;2022-08-19T06:48:24;4.10;;;3.75;;
21352;SDS011;10834;52.268;6.770;2022-08-19T06:51:10;4.95;;;4.50;;
21352;SDS011;10834;52.268;6.770;2022-08-19T06:53:56;5.93;;;5.40;;
21352;SDS011;10834;52.268;6.770;2022-08-19T06:56:43;6.60;;;5.88;;
21352;SDS011;10834;52.268;6.770;2022-08-19T06:59:31;7.53;;;5.68;;
21352;SDS011;10834;52.268;6.770;2022-08-19T07:02:18;8.98;;;6.57;;
21352;SDS011;10834;52.268;6.770;2022-08-19T07:05:05;7.20;;;6.20;;
21352;SDS011;10834;52.268;6.770;2022-08-19T07:07:52;6.97;;;5.80;;
21352;SDS011;10834;52.268;6.770;2022-08-19T07:10:42;6.93;;;6.22;;
21352;SDS011;10834;52.268;6.770;2022-08-19T07:13:30;6.68;;;6.10;;
21352;SDS011;10834;52.268;6.770;2022-08-19T07:16:18;8.43;;;7.45;;
21352;SDS011;10834;52.268;6.770;2022-08-19T07:19:04;8.05;;;7.25;;
21352;SDS011;10834;52.268;6.770;2022-08-19T07:21:50;7.80;;;6.47;;
21352;SDS011;10834;52.268;6.770;2022-08-19T07:24:40;7.68;;;6.78;;
21352;SDS011;10834;52.268;6.770;2022-08-19T07:27:26;8.00;;;7.20;;
21352;SDS011;10834;52.268;6.770;2022-08-19T07:30:12;7.95;;;7.05;;
21352;SDS011;10834;52.268;6.770;2022-08-19T07:32:58;8.40;;;6.47;;
21352;SDS011;10834;52.268;6.770;2022-08-19T07:35:44;5.40;;;5.00;;
21352;SDS011;10834;52.268;6.770;2022-08-19T07:38:31;7.15;;;5.38;;
21352;SDS011;10834;52.268;6.770;2022-08-19T07:41:19;6.68;;;5.80;;
21352;SDS011;10834;52.268;6.770;2022-08-19T07:44:07;6.43;;;5.82;;
21352;SDS011;10834;52.268;6.770;2022-08-19T07:46:54;7.72;;;6.18;;
21352;SDS011;10834;52.268;6.770;2022-08-19T07:49:42;5.90;;;4.97;;
21352;SDS011;10834;52.268;6.770;2022-08-19T07:52:28;6.32;;;5.40;;
21352;SDS011;10834;52.268;6.770;2022-08-19T07:55:15;5.97;;;5.20;;
21352;SDS011;10834;52.268;6.770;2022-08-19T07:58:03;7.55;;;4.57;;
21352;SDS011;10834;52.268;6.770;2022-08-19T08:00:50;8.40;;;4.72;;
21352;SDS011;10834;52.268;6.770;2022-08-19T08:03:37;5.47;;;4.97;;
21352;SDS011;10834;52.268;6.770;2022-08-19T08:06:41;5.32;;;4.85;;
21352;SDS011;10834;52.268;6.770;2022-08-19T08:09:46;6.20;;;5.53;;
21352;SDS011;10834;52.268;6.770;2022-08-19T08:12:36;5.40;;;4.90;;
21352;SDS011;10834;52.268;6.770;2022-08-19T08:15:27;5.00;;;4.60;;
21352;SDS011;10834;52.268;6.770;2022-08-19T08:18:13;5.97;;;4.90;;
21352;SDS011;10834;52.268;6.770;2022-08-19T08:20:59;5.40;;;4.95;;
21352;SDS011;10834;52.268;6.770;2022-08-19T08:23:45;5.50;;;4.82;;
21352;SDS011;10834;52.268;6.770;2022-08-19T08:26:31;5.68;;;5.18;;
21352;SDS011;10834;52.268;6.770;2022-08-19T08:29:18;5.68;;;5.18;;
21352;SDS011;10834;52.268;6.770;2022-08-19T08:32:05;5.63;;;5.13;;
21352;SDS011;10834;52.268;6.770;2022-08-19T08:34:51;6.05;;;4.57;;
21352;SDS011;10834;52.268;6.770;2022-08-19T08:37:39;8.93;;;5.20;;
21352;SDS011;10834;52.268;6.770;2022-08-19T08:40:30;5.57;;;5.07;;
21352;SDS011;10834;52.268;6.770;2022-08-19T08:49:20;5.25;;;4.45;;
21352;SDS011;10834;52.268;6.770;2022-08-19T08:52:11;5.47;;;4.95;;
21352;SDS011;10834;52.268;6.770;2022-08-19T08:55:22;5.53;;;5.00;;
21352;SDS011;10834;52.268;6.770;2022-08-19T08:58:32;4.43;;;4.03;;
21352;SDS011;10834;52.268;6.770;2022-08-19T09:01:27;4.93;;;4.53;;
21352;SDS011;10834;52.268;6.770;2022-08-19T09:04:13;5.25;;;4.75;;
21352;SDS011;10834;52.268;6.770;2022-08-19T09:07:17;5.38;;;4.88;;
21352;SDS011;10834;52.268;6.770;2022-08-19T09:16:21;4.93;;;4.53;;
21352;SDS011;10834;52.268;6.770;2022-08-19T09:19:11;4.80;;;4.40;;
21352;SDS011;10834;52.268;6.770;2022-08-19T09:21:57;4.35;;;4.05;;
21352;SDS011;10834;52.268;6.770;2022-08-19T09:24:45;6.68;;;5.07;;
21352;SDS011;10834;52.268;6.770;2022-08-19T09:27:31;7.00;;;5.07;;
21352;SDS011;10834;52.268;6.770;2022-08-19T09:30:23;5.30;;;4.90;;
21352;SDS011;10834;52.268;6.770;2022-08-19T09:33:13;5.30;;;4.80;;
21352;SDS011;10834;52.268;6.770;2022-08-19T09:36:01;5.63;;;4.82;;
21352;SDS011;10834;52.268;6.770;2022-08-19T09:38:48;5.15;;;4.75;;
21352;SDS011;10834;52.268;6.770;2022-08-19T09:41:34;6.88;;;5.57;;
21352;SDS011;10834;52.268;6.770;2022-08-19T09:44:20;4.88;;;4.55;;
21352;SDS011;10834;52.268;6.770;2022-08-19T09:47:07;5.90;;;5.25;;
21352;SDS011;10834;52.268;6.770;2022-08-19T09:49:54;4.90;;;4.60;;
21352;SDS011;10834;52.268;6.770;2022-08-19T09:52:40;8.93;;;7.25;;
21352;SDS011;10834;52.268;6.770;2022-08-19T09:55:27;10.35;;;7.82;;
21352;SDS011;10834;52.268;6.770;2022-08-19T09:58:13;9.30;;;6.78;;
21352;SDS011;10834;52.268;6.770;2022-08-19T10:00:59;6.57;;;6.05;;
21352;SDS011;10834;52.268;6.770;2022-08-19T10:03:48;6.68;;;5.38;;
21352;SDS011;10834;52.268;6.770;2022-08-19T10:06:37;5.85;;;5.45;;
21352;SDS011;10834;52.268;6.770;2022-08-19T10:09:24;5.97;;;5.47;;
21352;SDS011;10834;52.268;6.770;2022-08-19T10:12:10;7.07;;;5.57;;
21352;SDS011;10834;52.268;6.770;2022-08-19T10:14:58;10.82;;;9.82;;
21352;SDS011;10834;52.268;6.770;2022-08-19T10:17:44;10.40;;;8.13;;
21352;SDS011;10834;52.268;6.770;2022-08-19T10:20:30;9.88;;;7.63;;
21352;SDS011;10834;52.268;6.770;2022-08-19T10:23:16;8.13;;;7.32;;
21352;SDS011;10834;52.268;6.770;2022-08-19T10:26:06;7.28;;;6.55;;
21352;SDS011;10834;52.268;6.770;2022-08-19T10:28:53;6.80;;;6.20;;
21352;SDS011;10834;52.268;6.770;2022-08-19T10:31:39;6.90;;;6.30;;
21352;SDS011;10834;52.268;6.770;2022-08-19T10:34:26;7.38;;;6.78;;
21352;SDS011;10834;52.268;6.770;2022-08-19T10:37:13;6.60;;;6.10;;
21352;SDS011;10834;52.268;6.770;2022-08-19T10:39:59;6.45;;;5.85;;
21352;SDS011;10834;52.268;6.770;2022-08-19T10:42:47;6.65;;;6.15;;
21352;SDS011;10834;52.268;6.770;2022-08-19T10:45:33;7.13;;;6.07;;
21352;SDS011;10834;52.268;6.770;2022-08-19T10:48:19;6.47;;;5.90;;
21352;SDS011;10834;52.268;6.770;2022-08-19T10:51:05;6.75;;;6.25;;
21352;SDS011;10834;52.268;6.770;2022-08-19T10:54:10;8.00;;;6.07;;
21352;SDS011;10834;52.268;6.770;2022-08-19T10:56:56;7.78;;;7.18;;
21352;SDS011;10834;52.268;6.770;2022-08-19T10:59:42;6.60;;;6.10;;
21352;SDS011;10834;52.268;6.770;2022-08-19T11:02:28;6.55;;;5.75;;
21352;SDS011;10834;52.268;6.770;2022-08-19T11:05:14;6.63;;;6.13;;
21352;SDS011;10834;52.268;6.770;2022-08-19T11:08:01;6.10;;;5.60;;
21352;SDS011;10834;52.268;6.770;2022-08-19T11:10:47;6.95;;;6.30;;
21352;SDS011;10834;52.268;6.770;2022-08-19T11:13:34;6.50;;;5.90;;
21352;SDS011;10834;52.268;6.770;2022-08-19T11:16:23;6.78;;;6.18;;
21352;SDS011;10834;52.268;6.770;2022-08-19T11:19:11;6.35;;;5.85;;
21352;SDS011;10834;52.268;6.770;2022-08-19T11:21:59;6.65;;;6.13;;
21352;SDS011;10834;52.268;6.770;2022-08-19T11:24:47;6.93;;;6.28;;
21352;SDS011;10834;52.268;6.770;2022-08-19T11:27:33;6.68;;;6.10;;
21352;SDS011;10834;52.268;6.770;2022-08-19T11:30:22;6.75;;;6.22;;
21352;SDS011;10834;52.268;6.770;2022-08-19T11:33:08;6.60;;;6.03;;
21352;SDS011;10834;52.268;6.770;2022-08-19T11:35:59;6.70;;;6.13;;
21352;SDS011;10834;52.268;6.770;2022-08-19T11:38:46;6.22;;;5.72;;
21352;SDS011;10834;52.268;6.770;2022-08-19T11:41:34;6.43;;;5.93;;
21352;SDS011;10834;52.268;6.770;2022-08-19T11:44:20;6.57;;;6.07;;
21352;SDS011;10834;52.268;6.770;2022-08-19T11:47:07;6.60;;;6.07;;
21352;SDS011;10834;52.268;6.770;2022-08-19T11:49:53;6.55;;;6.05;;
21352;SDS011;10834;52.268;6.770;2022-08-19T11:52:39;7.18;;;6.68;;
21352;SDS011;10834;52.268;6.770;2022-08-19T11:55:25;6.05;;;5.65;;
21352;SDS011;10834;52.268;6.770;2022-08-19T11:58:12;6.53;;;6.10;;
21352;SDS011;10834;52.268;6.770;2022-08-19T12:00:59;6.50;;;5.90;;
21352;SDS011;10834;52.268;6.770;2022-08-19T12:03:46;7.03;;;6.40;;
21352;SDS011;10834;52.268;6.770;2022-08-19T12:06:33;6.32;;;5.88;;
21352;SDS011;10834;52.268;6.770;2022-08-19T12:09:23;5.65;;;5.25;;
21352;SDS011;10834;52.268;6.770;2022-08-19T12:12:09;6.88;;;6.38;;
21352;SDS011;10834;52.268;6.770;2022-08-19T12:14:55;6.10;;;5.70;;
21352;SDS011;10834;52.268;6.770;2022-08-19T12:17:43;5.88;;;5.38;;
21352;SDS011;10834;52.268;6.770;2022-08-19T12:20:29;5.95;;;5.55;;
21352;SDS011;10834;52.268;6.770;2022-08-19T12:23:15;5.97;;;5.57;;
21352;SDS011;10834;52.268;6.770;2022-08-19T12:26:02;6.03;;;5.63;;
21352;SDS011;10834;52.268;6.770;2022-08-19T12:28:48;5.88;;;5.47;;
21352;SDS011;10834;52.268;6.770;2022-08-19T12:31:34;7.30;;;6.63;;
21352;SDS011;10834;52.268;6.770;2022-08-19T12:34:20;7.03;;;6.05;;
21352;SDS011;10834;52.268;6.770;2022-08-19T12:37:06;7.82;;;5.88;;
21352;SDS011;10834;52.268;6.770;2022-08-19T12:39:52;6.65;;;6.15;;
21352;SDS011;10834;52.268;6.770;2022-08-19T12:42:39;6.53;;;6.05;;
21352;SDS011;10834;52.268;6.770;2022-08-19T12:45:28;6.00;;;5.57;;
21352;SDS011;10834;52.268;6.770;2022-08-19T12:48:14;5.80;;;5.40;;
21352;SDS011;10834;52.268;6.770;2022-08-19T12:51:06;6.43;;;5.93;;
21352;SDS011;10834;52.268;6.770;2022-08-19T12:53:53;6.10;;;5.63;;
21352;SDS011;10834;52.268;6.770;2022-08-19T12:56:39;6.50;;;6.00;;
21352;SDS011;10834;52.268;6.770;2022-08-19T12:59:26;6.22;;;5.47;;
21352;SDS011;10834;52.268;6.770;2022-08-19T13:02:12;5.68;;;5.28;;
21352;SDS011;10834;52.268;6.770;2022-08-19T13:04:58;5.45;;;4.95;;
21352;SDS011;10834;52.268;6.770;2022-08-19T13:07:45;5.75;;;5.35;;
21352;SDS011;10834;52.268;6.770;2022-08-19T13:10:32;5.80;;;5.40;;
21352;SDS011;10834;52.268;6.770;2022-08-19T13:13:20;5.88;;;5.47;;
21352;SDS011;10834;52.268;6.770;2022-08-19T13:16:07;6.13;;;5.65;;
21352;SDS011;10834;52.268;6.770;2022-08-19T13:18:56;6.18;;;5.65;;
21352;SDS011;10834;52.268;6.770;2022-08-19T13:21:43;5.80;;;5.35;;
21352;SDS011;10834;52.268;6.770;2022-08-19T13:24:29;5.90;;;5.40;;
21352;SDS011;10834;52.268;6.770;2022-08-19T13:27:15;6.45;;;5.95;;
21352;SDS011;10834;52.268;6.770;2022-08-19T13:30:03;6.50;;;6.00;;
21352;SDS011;10834;52.268;6.770;2022-08-19T13:33:08;6.68;;;6.07;;
21352;SDS011;10834;52.268;6.770;2022-08-19T13:36:01;6.28;;;5.78;;
21352;SDS011;10834;52.268;6.770;2022-08-19T13:38:47;6.43;;;5.93;;
21352;SDS011;10834;52.268;6.770;2022-08-19T13:41:33;7.13;;;6.63;;
21352;SDS011;10834;52.268;6.770;2022-08-19T13:44:19;6.25;;;5.65;;
21352;SDS011;10834;52.268;6.770;2022-08-19T13:47:06;6.95;;;6.35;;
21352;SDS011;10834;52.268;6.770;2022-08-19T13:49:52;7.20;;;6.70;;
21352;SDS011;10834;52.268;6.770;2022-08-19T13:52:39;7.32;;;6.72;;
21352;SDS011;10834;52.268;6.770;2022-08-19T13:55:25;7.57;;;6.97;;
21352;SDS011;10834;52.268;6.770;2022-08-19T13:58:12;7.55;;;6.85;;
21352;SDS011;10834;52.268;6.770;2022-08-19T14:00:59;7.70;;;6.90;;
21352;SDS011;10834;52.268;6.770;2022-08-19T14:03:45;7.25;;;6.60;;
21352;SDS011;10834;52.268;6.770;2022-08-19T14:06:32;8.07;;;7.38;;
21352;SDS011;10834;52.268;6.770;2022-08-19T14:09:18;8.70;;;7.80;;
21352;SDS011;10834;52.268;6.770;2022-08-19T14:12:04;8.80;;;7.75;;
21352;SDS011;10834;52.268;6.770;2022-08-19T14:14:50;9.93;;;8.70;;
21352;SDS011;10834;52.268;6.770;2022-08-19T14:17:40;8.90;;;8.00;;
21352;SDS011;10834;52.268;6.770;2022-08-19T14:20:28;8.45;;;7.53;;
21352;SDS011;10834;52.268;6.770;2022-08-19T14:23:14;8.73;;;7.57;;
21352;SDS011;10834;52.268;6.770;2022-08-19T14:26:08;8.10;;;7.22;;
21352;SDS011;10834;52.268;6.770;2022-08-19T14:28:55;10.23;;;7.90;;
21352;SDS011;10834;52.268;6.770;2022-08-19T14:31:43;9.23;;;8.30;;
21352;SDS011;10834;52.268;6.770;2022-08-19T14:34:29;11.23;;;8.50;;
21352;SDS011;10834;52.268;6.770;2022-08-19T14:37:16;10.40;;;8.35;;
21352;SDS011;10834;52.268;6.770;2022-08-19T14:40:03;8.68;;;7.65;;
21352;SDS011;10834;52.268;6.770;2022-08-19T14:42:50;11.02;;;8.63;;
21352;SDS011;10834;52.268;6.770;2022-08-19T14:45:37;9.75;;;8.70;;
21352;SDS011;10834;52.268;6.770;2022-08-19T14:48:24;8.73;;;7.88;;
21352;SDS011;10834;52.268;6.770;2022-08-19T14:51:10;12.60;;;9.32;;
21352;SDS011;10834;52.268;6.770;2022-08-19T14:53:56;9.15;;;7.75;;
21352;SDS011;10834;52.268;6.770;2022-08-19T14:56:43;11.30;;;8.98;;
21352;SDS011;10834;52.268;6.770;2022-08-19T14:59:29;10.45;;;8.65;;
21352;SDS011;10834;52.268;6.770;2022-08-19T15:02:16;9.48;;;8.52;;
21352;SDS011;10834;52.268;6.770;2022-08-19T15:05:02;9.65;;;8.63;;
21352;SDS011;10834;52.268;6.770;2022-08-19T15:07:48;10.23;;;8.93;;
21352;SDS011;10834;52.268;6.770;2022-08-19T15:10:34;10.82;;;8.82;;
21352;SDS011;10834;52.268;6.770;2022-08-19T15:13:20;9.80;;;8.30;;
21352;SDS011;10834;52.268;6.770;2022-08-19T15:16:07;11.85;;;8.57;;
21352;SDS011;10834;52.268;6.770;2022-08-19T15:18:57;10.02;;;8.82;;
21352;SDS011;10834;52.268;6.770;2022-08-19T15:21:45;12.50;;;8.90;;
21352;SDS011;10834;52.268;6.770;2022-08-19T15:24:31;10.85;;;8.63;;
21352;SDS011;10834;52.268;6.770;2022-08-19T15:27:17;14.35;;;9.13;;
21352;SDS011;10834;52.268;6.770;2022-08-19T15:30:03;10.90;;;8.65;;
21352;SDS011;10834;52.268;6.770;2022-08-19T15:32:50;10.00;;;8.68;;
21352;SDS011;10834;52.268;6.770;2022-08-19T15:35:37;10.18;;;8.35;;
21352;SDS011;10834;52.268;6.770;2022-08-19T15:38:25;8.30;;;7.43;;
21352;SDS011;10834;52.268;6.770;2022-08-19T15:41:15;9.52;;;7.65;;
21352;SDS011;10834;52.268;6.770;2022-08-19T15:44:14;11.45;;;7.82;;
21352;SDS011;10834;52.268;6.770;2022-08-19T15:47:02;8.38;;;7.45;;
21352;SDS011;10834;52.268;6.770;2022-08-19T15:49:49;10.13;;;7.63;;
21352;SDS011;10834;52.268;6.770;2022-08-19T15:52:35;9.48;;;8.40;;
21352;SDS011;10834;52.268;6.770;2022-08-19T15:55:23;11.32;;;7.78;;
21352;SDS011;10834;52.268;6.770;2022-08-19T15:58:13;10.07;;;8.32;;
21352;SDS011;10834;52.268;6.770;2022-08-19T16:01:18;9.32;;;7.82;;
21352;SDS011;10834;52.268;6.770;2022-08-19T16:04:23;10.15;;;8.52;;
21352;SDS011;10834;52.268;6.770;2022-08-19T16:07:27;10.82;;;8.20;;
21352;SDS011;10834;52.268;6.770;2022-08-19T16:10:14;11.10;;;8.77;;
21352;SDS011;10834;52.268;6.770;2022-08-19T16:13:00;10.55;;;7.55;;
21352;SDS011;10834;52.268;6.770;2022-08-19T16:15:46;11.77;;;7.95;;
21352;SDS011;10834;52.268;6.770;2022-08-19T16:18:32;10.88;;;8.35;;
21352;SDS011;10834;52.268;6.770;2022-08-19T16:21:23;9.52;;;7.90;;
21352;SDS011;10834;52.268;6.770;2022-08-19T16:24:12;10.50;;;8.05;;
21352;SDS011;10834;52.268;6.770;2022-08-19T16:26:59;10.25;;;8.38;;
21352;SDS011;10834;52.268;6.770;2022-08-19T16:29:45;9.77;;;7.88;;
21352;SDS011;10834;52.268;6.770;2022-08-19T16:32:32;13.20;;;8.43;;
21352;SDS011;10834;52.268;6.770;2022-08-19T16:35:18;12.07;;;8.55;;
21352;SDS011;10834;52.268;6.770;2022-08-19T16:38:04;12.52;;;9.02;;
21352;SDS011;10834;52.268;6.770;2022-08-19T16:40:51;12.15;;;9.60;;
21352;SDS011;10834;52.268;6.770;2022-08-19T16:43:41;13.73;;;10.07;;
21352;SDS011;10834;52.268;6.770;2022-08-19T16:46:27;12.45;;;10.40;;
21352;SDS011;10834;52.268;6.770;2022-08-19T16:49:13;14.95;;;10.40;;
21352;SDS011;10834;52.268;6.770;2022-08-19T16:52:00;15.55;;;11.65;;
21352;SDS011;10834;52.268;6.770;2022-08-19T16:54:47;11.02;;;10.02;;
21352;SDS011;10834;52.268;6.770;2022-08-19T16:57:34;11.15;;;10.05;;
21352;SDS011;10834;52.268;6.770;2022-08-19T17:00:20;12.60;;;11.10;;
21352;SDS011;10834;52.268;6.770;2022-08-19T17:03:07;11.38;;;10.15;;